CheckWX is a tool to help pilots better visualize weather data.  It is not intended as a substitute for an official pre-flight weather briefing.

09:20:49 UTC

KGGG METAR
East Texas Regional Airport
Longview, Texas, USA
Current

7 mins ago

KGGG 190914Z AUTO 11003KT 10SM BKN015 BKN020 21/21 A2976 RMK AO2 T02060206
Observed
May-19 @ 09:14 UTC
Wind
  • 110° at 3 KTS
Visibility
10 SM
Flight Rules
MVFR
Cloud Levels
  • Broken at 1,500' AGL
  • Broken at 2,000' AGL
Temperature
21°C / 70°F
Dewpoint
21°C / 70°F
Humidity
100%
Altimeter
29.76" Hg
Pressure
1007.82 hPa
Previous

28 mins ago

KGGG 190853Z AUTO 15004KT 10SM SCT018 21/21 A2976 RMK AO2 SLP070 T02060206 53004
Observed
May-19 @ 08:53 UTC
Wind
  • 150° at 4 KTS
Visibility
10 SM
Flight Rules
VFR
Cloud Levels
  • Scattered at 1,800' AGL
Temperature
21°C / 70°F
Dewpoint
21°C / 70°F
Humidity
100%
Altimeter
29.76" Hg
Pressure
1007.82 hPa
Previous

1 hour ago

KGGG 190753Z AUTO 00000KT 10SM CLR 21/21 A2973 RMK AO2 SLP061 T02060206
Observed
May-19 @ 07:53 UTC
Visibility
10 SM
Flight Rules
VFR
Cloud Levels
  • Clear skies
Temperature
21°C / 70°F
Dewpoint
21°C / 70°F
Humidity
100%
Altimeter
29.73" Hg
Pressure
1006.82 hPa